Ellsworth, NE (69340)

3:06 PM MDT on July 05, 2015 (GMT -0600)
Alliance Municipal | | Change Station
CLOSE
Current Station
Airport
Location: Alliance,
Elevation: 3930 ft
Nearby Weather Stations

Elev 3930 ft 42.06 °N, 102.80 °W | Updated 13 minutes ago

Clear
Clear
93 °F
Feels Like 92 °F
N
5
Wind Variable Wind from West

Today
High -- | Low -- °F
--% Chance of Precip.
Yesterday
High -- | Low -- °F
Precip. -- in
5:19 AM 8:28 PM
Waning Gibbous, 82% visible
Pressure 29.65 in
Visibility 10.0 miles
Clouds Clear
Heat Index 92 °F
Dew Point 57 °F
Humidity 30%
Rainfall 0.00 in
Snow Depth Not available.
UV 10 out of 12
Pollen 4.70 out of 12
Air Quality Not available.
Flu Activity Not available.
METAR KAIA 052053Z AUTO 28004KT 10SM CLR 34/14 A2982 RMK AO2 LTG DSNT W SLP039 T03390139 58008 $

More Conditions Fewer Conditions

Pressure 29.65 in
Visibility 10.0 miles
Clouds Clear
Heat Index 92 °F
Dew Point 57 °F
Humidity 30%
Rainfall 0.00 in
Snow Depth Not available.
UV 10 out of 12
Pollen 4.70 out of 12
Air Quality Not available.
Flu Activity Not available.
METAR KAIA 052053Z AUTO 28004KT 10SM CLR 34/14 A2982 RMK AO2 LTG DSNT W SLP039 T03390139 58008 $

More Conditions Fewer Conditions

10-Day Weather Forecast

×

Almanac

Astronomy

Jul. 05, 2015 Rise Set
Actual Time
Civil Twilight
Nautical Twilight
Astronomical Twilight
Moon
Length of Visible Light
Length of Day
Tomorrow will be .
, % of the Moon is Illuminated

Today's Extremes

State Highs State Lows

Community

WunderPhotos

Upload Photos

1,835,386 photos uploaded!

WunderBlogs® & News

Nearby

Air Quality

  Air Quality AQ Index Pollutant
Not available.

Snow Depth

Station Depth Elevation

Earthquake Activity

City Distance Mag. Time & Date
Minimum magnitude displayed is 2.5.

Coastal Water Temperatures

Place Temperature

Stations

Nearby Weather Stations

Station Location Temp. Windchill Dew Point Humidity Wind Precip. Elev Updated Type